Time;durP1;ratioP1;P1;durP2;ratioP2;P2;SDS_P1;SDS_P2;PMS_P1;PMS_P2;Temp;Humidity;BMP_temperature;BMP_pressure;BME280_temperature;BME280_humidity;BME280_pressure;Samples;Min_cycle;Max_cycle;Signal;HPM_P1;HPM_P2
2023/05/17 00:01:51;;;;;;;12.38;3.97;;;12.60;70.40;;;;;;5068384;28;20025;-62
2023/05/17 00:04:16;;;;;;;11.73;3.35;;;12.60;70.50;;;;;;5071373;28;20055;-63
2023/05/17 00:06:43;;;;;;;9.05;3.30;;;12.60;70.40;;;;;;5075341;28;20039;-63
2023/05/17 00:09:09;;;;;;;9.93;3.50;;;12.50;70.50;;;;;;5073145;28;20052;-63
2023/05/17 00:11:35;;;;;;;13.52;4.03;;;12.50;70.50;;;;;;5069464;28;20465;-62
2023/05/17 00:14:01;;;;;;;12.45;3.25;;;12.50;70.50;;;;;;5075277;28;20450;-62
2023/05/17 00:16:26;;;;;;;10.55;3.85;;;12.60;70.60;;;;;;5071216;28;20024;-62
2023/05/17 00:18:55;;;;;;;9.70;3.20;;;12.50;70.60;;;;;;5071333;28;20423;-62
2023/05/17 00:21:20;;;;;;;10.77;3.47;;;12.50;70.60;;;;;;5068892;28;20083;-62
2023/05/17 00:23:46;;;;;;;13.30;3.33;;;12.50;70.60;;;;;;5071585;28;20056;-62
2023/05/17 00:26:12;;;;;;;14.77;3.55;;;12.50;70.70;;;;;;5074377;28;20032;-62
2023/05/17 00:28:38;;;;;;;11.05;3.97;;;12.50;70.70;;;;;;5063684;28;20037;-62
2023/05/17 00:31:04;;;;;;;10.90;3.47;;;12.50;70.70;;;;;;5069797;28;20111;-63
2023/05/17 00:33:30;;;;;;;11.52;4.75;;;12.50;70.80;;;;;;5075170;28;20040;-63
2023/05/17 00:35:56;;;;;;;13.38;3.80;;;12.50;70.90;;;;;;5058325;28;20029;-62
2023/05/17 00:38:22;;;;;;;11.40;3.10;;;12.50;70.90;;;;;;5075846;28;20119;-63
2023/05/17 00:40:49;;;;;;;15.82;3.50;;;12.50;70.90;;;;;;5064822;28;20033;-62
2023/05/17 00:43:15;;;;;;;13.50;3.95;;;12.50;71.00;;;;;;5062762;28;20032;-62
2023/05/17 00:45:40;;;;;;;15.10;3.85;;;12.50;71.00;;;;;;5069378;28;20450;-63
2023/05/17 00:48:06;;;;;;;13.10;4.18;;;12.50;71.00;;;;;;5039425;28;20106;-63
2023/05/17 00:50:33;;;;;;;13.15;4.40;;;12.40;71.00;;;;;;5073177;28;20361;-63
2023/05/17 00:52:59;;;;;;;10.93;3.65;;;12.40;71.10;;;;;;5073663;28;20083;-62
2023/05/17 00:55:25;;;;;;;12.90;3.83;;;12.40;71.20;;;;;;5067140;28;20056;-63
2023/05/17 00:57:51;;;;;;;11.25;3.88;;;12.30;71.20;;;;;;5070257;28;20041;-62
2023/05/17 01:00:17;;;;;;;13.00;4.00;;;12.30;71.20;;;;;;5073439;28;20103;-63
2023/05/17 01:02:47;;;;;;;11.32;3.28;;;12.30;71.20;;;;;;5074312;28;20106;-62
2023/05/17 01:05:13;;;;;;;10.95;3.30;;;12.30;71.20;;;;;;5060704;28;20452;-63
2023/05/17 01:07:39;;;;;;;12.43;3.88;;;12.30;71.20;;;;;;5070574;28;20036;-63
2023/05/17 01:10:06;;;;;;;12.80;3.75;;;12.30;71.20;;;;;;5059557;28;20021;-63
2023/05/17 01:12:42;;;;;;;11.65;3.55;;;12.30;71.20;;;;;;5066892;28;20036;-62
2023/05/17 01:15:16;;;;;;;13.50;3.70;;;12.30;71.30;;;;;;5074761;28;20112;-62
2023/05/17 01:18:20;;;;;;;12.57;3.55;;;12.30;71.40;;;;;;5067482;28;20025;-63
2023/05/17 01:20:47;;;;;;;13.05;3.88;;;12.30;71.40;;;;;;5073047;28;20037;-63
2023/05/17 01:23:50;;;;;;;15.55;3.72;;;12.30;71.50;;;;;;5062968;28;20043;-63
2023/05/17 01:26:37;;;;;;;13.02;3.97;;;12.30;71.50;;;;;;5074560;28;20496;-63
2023/05/17 01:29:06;;;;;;;11.50;3.90;;;12.20;71.50;;;;;;5068423;28;20033;-63
2023/05/17 01:31:32;;;;;;;11.02;3.47;;;12.20;71.50;;;;;;5068906;28;20044;-63
2023/05/17 01:33:58;;;;;;;12.88;4.03;;;12.20;71.60;;;;;;5072571;28;20037;-63
2023/05/17 01:36:25;;;;;;;13.38;4.63;;;12.20;71.60;;;;;;5062997;28;20028;-63
2023/05/17 01:38:51;;;;;;;11.45;4.55;;;12.20;71.60;;;;;;5073485;28;20016;-63
2023/05/17 01:41:32;;;;;;;13.80;4.38;;;12.20;71.70;;;;;;5061275;28;20028;-62
2023/05/17 01:44:01;;;;;;;13.90;4.78;;;12.20;71.70;;;;;;5063722;28;20396;-63
2023/05/17 01:46:35;;;;;;;14.10;4.63;;;12.20;71.80;;;;;;5073037;28;20024;-63
2023/05/17 01:49:15;;;;;;;9.07;3.53;;;12.20;71.90;;;;;;5062297;28;20032;-63
2023/05/17 01:51:50;;;;;;;15.95;4.57;;;12.20;72.00;;;;;;5068177;28;20357;-63
2023/05/17 01:54:21;;;;;;;10.40;4.20;;;12.20;72.00;;;;;;5065892;28;20036;-63
2023/05/17 01:56:50;;;;;;;;;;;12.20;72.00;;;;;;5070138;28;20040;-62
2023/05/17 01:59:23;;;;;;;13.50;4.18;;;12.20;72.00;;;;;;5069487;28;19909;-63
2023/05/17 02:01:50;;;;;;;16.17;4.30;;;12.20;72.00;;;;;;5067752;28;20085;-63
2023/05/17 02:04:15;;;;;;;13.65;4.60;;;12.20;72.10;;;;;;5073001;28;20029;-62
2023/05/17 02:06:41;;;;;;;11.70;3.97;;;12.20;72.10;;;;;;5069684;28;20464;-63
2023/05/17 02:09:07;;;;;;;12.65;4.85;;;12.30;72.20;;;;;;5072447;28;20025;-63
2023/05/17 02:11:34;;;;;;;13.77;4.80;;;12.30;72.30;;;;;;5070189;28;20461;-63
2023/05/17 02:14:00;;;;;;;15.27;4.65;;;12.30;72.40;;;;;;5061314;28;20052;-63
2023/05/17 02:16:26;;;;;;;12.88;4.30;;;12.30;72.40;;;;;;5062652;28;20540;-63
2023/05/17 02:18:51;;;;;;;13.80;4.60;;;12.20;72.30;;;;;;5068611;28;20024;-62
2023/05/17 02:21:19;;;;;;;12.50;3.92;;;12.30;72.40;;;;;;5063586;28;20442;-62
2023/05/17 02:23:44;;;;;;;14.25;4.15;;;12.30;72.50;;;;;;5072447;28;20074;-63
2023/05/17 02:26:10;;;;;;;11.55;3.70;;;12.30;72.50;;;;;;5067525;28;20461;-62
2023/05/17 02:28:36;;;;;;;14.98;4.20;;;12.30;72.50;;;;;;5070033;28;20021;-62
2023/05/17 02:31:02;;;;;;;16.35;5.00;;;12.30;72.50;;;;;;5072257;28;20089;-62
2023/05/17 02:33:28;;;;;;;13.98;5.03;;;12.30;72.60;;;;;;5072342;28;20101;-62
2023/05/17 02:35:55;;;;;;;12.45;4.75;;;12.30;72.60;;;;;;5070895;28;20120;-62
2023/05/17 02:38:21;;;;;;;12.82;4.95;;;12.30;72.70;;;;;;5066449;28;20119;-63
2023/05/17 02:40:46;;;;;;;14.05;4.70;;;12.20;72.70;;;;;;5072714;28;20369;-62
2023/05/17 02:43:12;;;;;;;14.25;4.72;;;12.30;72.70;;;;;;5064182;28;20115;-63
2023/05/17 02:45:38;;;;;;;12.25;4.68;;;12.30;72.70;;;;;;5060205;28;20024;-62
2023/05/17 02:48:04;;;;;;;11.52;4.75;;;12.30;72.70;;;;;;5059751;28;20025;-63
2023/05/17 02:50:30;;;;;;;14.25;4.65;;;12.30;72.70;;;;;;5065800;28;20029;-62
2023/05/17 02:52:57;;;;;;;13.70;5.43;;;12.40;72.80;;;;;;5055710;28;20521;-62
2023/05/17 02:55:22;;;;;;;14.15;4.57;;;12.30;72.80;;;;;;5066393;28;20029;-62
2023/05/17 02:57:48;;;;;;;17.40;5.18;;;12.30;72.90;;;;;;5064691;28;20119;-62
2023/05/17 03:00:15;;;;;;;10.48;4.88;;;12.40;72.90;;;;;;5072068;28;20082;-63
2023/05/17 03:02:41;;;;;;;12.85;4.50;;;12.40;73.00;;;;;;5066558;28;20340;-63
2023/05/17 03:05:10;;;;;;;13.50;4.65;;;12.40;73.10;;;;;;5072931;28;20032;-63
2023/05/17 03:07:40;;;;;;;16.40;4.80;;;12.40;73.10;;;;;;5068007;28;20357;-63
2023/05/17 03:10:06;;;;;;;10.25;4.72;;;12.40;73.10;;;;;;5072888;28;20024;-63
2023/05/17 03:12:37;;;;;;;11.05;4.35;;;12.40;73.10;;;;;;5055513;28;20103;-62
2023/05/17 03:15:03;;;;;;;11.77;4.97;;;12.40;73.00;;;;;;5073688;28;20109;-63
2023/05/17 03:17:29;;;;;;;10.98;5.22;;;12.40;73.00;;;;;;5068624;28;20445;-63
2023/05/17 03:19:55;;;;;;;13.60;5.05;;;12.40;73.10;;;;;;5070247;28;20035;-62
2023/05/17 03:22:21;;;;;;;12.82;5.07;;;12.40;73.10;;;;;;5063255;28;20338;-63
2023/05/17 03:24:47;;;;;;;13.98;5.35;;;12.40;73.20;;;;;;5072779;28;20032;-63
2023/05/17 03:27:13;;;;;;;12.38;4.68;;;12.40;73.20;;;;;;5071841;28;20020;-62
2023/05/17 03:29:39;;;;;;;15.13;5.20;;;12.30;73.20;;;;;;5069708;28;20024;-62
2023/05/17 03:32:05;;;;;;;13.35;5.07;;;12.30;73.30;;;;;;5070576;28;20119;-62
2023/05/17 03:34:31;;;;;;;12.07;4.63;;;12.30;73.30;;;;;;5071024;28;20052;-63
2023/05/17 03:36:57;;;;;;;16.20;5.50;;;12.30;73.30;;;;;;5055818;28;20484;-62
2023/05/17 03:39:23;;;;;;;14.18;4.90;;;12.30;73.40;;;;;;5066477;28;20347;-62
2023/05/17 03:41:49;;;;;;;14.82;5.00;;;12.30;73.40;;;;;;5052445;28;20064;-63
2023/05/17 03:44:15;;;;;;;14.55;5.13;;;12.30;73.40;;;;;;5069709;28;20040;-62
2023/05/17 03:46:41;;;;;;;12.13;5.07;;;12.30;73.40;;;;;;5070388;28;20021;-63
2023/05/17 03:49:08;;;;;;;13.23;4.97;;;12.30;73.40;;;;;;5070186;28;20040;-62
2023/05/17 03:51:34;;;;;;;17.08;4.75;;;12.30;73.50;;;;;;5070668;28;20119;-62
2023/05/17 03:54:00;;;;;;;12.85;4.85;;;12.30;73.50;;;;;;5071417;28;20183;-63
2023/05/17 03:56:28;;;;;;;15.05;4.78;;;12.30;73.50;;;;;;5055788;28;20119;-62
2023/05/17 03:58:53;;;;;;;13.45;4.47;;;12.30;73.50;;;;;;5070927;28;20493;-63
2023/05/17 04:01:19;;;;;;;14.27;5.18;;;12.30;73.40;;;;;;5071323;28;20032;-63
2023/05/17 04:03:46;;;;;;;12.23;4.57;;;12.30;73.40;;;;;;5069657;28;20047;-63
2023/05/17 04:06:16;;;;;;;15.18;4.50;;;12.30;73.40;;;;;;5071956;28;20203;-62
2023/05/17 04:08:42;;;;;;;13.68;5.00;;;12.30;73.40;;;;;;5062897;28;20029;-62
2023/05/17 04:11:14;;;;;;;14.38;4.82;;;12.20;73.30;;;;;;5064253;28;20025;-62
2023/05/17 04:13:41;;;;;;;11.50;4.53;;;12.20;73.30;;;;;;5046594;28;20408;-63
2023/05/17 04:16:07;;;;;;;12.68;4.78;;;12.20;73.30;;;;;;5068319;28;20075;-62
2023/05/17 04:18:36;;;;;;;16.10;4.90;;;12.20;73.40;;;;;;5068274;28;20043;-62
2023/05/17 04:21:02;;;;;;;10.50;4.65;;;12.20;73.40;;;;;;5068407;28;20052;-62
2023/05/17 04:23:28;;;;;;;9.95;4.50;;;12.20;73.40;;;;;;5071133;28;20469;-62
2023/05/17 04:25:56;;;;;;;11.00;4.00;;;12.10;73.40;;;;;;5060031;28;20029;-62
2023/05/17 04:28:23;;;;;;;11.00;4.32;;;12.10;73.40;;;;;;5072140;28;20021;-62
2023/05/17 04:30:49;;;;;;;10.13;4.25;;;12.10;73.30;;;;;;5072815;28;20035;-62
2023/05/17 04:33:15;;;;;;;12.65;4.35;;;12.10;73.30;;;;;;5058948;28;20342;-62
2023/05/17 04:35:42;;;;;;;10.30;4.15;;;12.10;73.40;;;;;;5065786;28;20048;-63
2023/05/17 04:38:08;;;;;;;15.90;5.28;;;12.10;73.40;;;;;;5074451;28;20032;-62
2023/05/17 04:40:34;;;;;;;15.98;4.90;;;12.10;73.30;;;;;;5074802;28;20028;-63
2023/05/17 04:43:00;;;;;;;10.90;4.55;;;12.00;73.30;;;;;;5075596;28;20082;-62
2023/05/17 04:45:26;;;;;;;12.48;4.50;;;12.00;73.30;;;;;;5063575;28;20017;-62
2023/05/17 04:47:52;;;;;;;12.20;4.57;;;12.00;73.30;;;;;;5073314;28;20017;-62
2023/05/17 04:50:18;;;;;;;13.90;5.18;;;12.00;73.30;;;;;;5076234;28;20028;-62
2023/05/17 04:52:46;;;;;;;15.13;4.85;;;12.10;73.30;;;;;;5075288;28;20412;-62
2023/05/17 04:55:12;;;;;;;12.88;4.75;;;12.10;73.30;;;;;;5066442;28;20418;-62
2023/05/17 04:57:38;;;;;;;11.57;4.35;;;12.10;73.40;;;;;;5071491;28;20040;-62
2023/05/17 05:00:06;;;;;;;15.18;4.75;;;12.10;74.10;;;;;;5066590;28;20119;-62
2023/05/17 05:02:32;;;;;;;11.38;4.15;;;12.20;73.50;;;;;;5066910;28;20028;-62
2023/05/17 05:04:59;;;;;;;13.85;4.35;;;12.20;73.50;;;;;;5067263;28;20124;-62
2023/05/17 05:07:26;;;;;;;11.68;5.07;;;12.30;73.50;;;;;;5062683;28;20065;-63
2023/05/17 05:09:51;;;;;;;12.85;4.47;;;12.40;73.30;;;;;;5073212;28;20453;-63
2023/05/17 05:12:19;;;;;;;12.73;3.97;;;12.50;73.20;;;;;;5074505;28;20048;-62
2023/05/17 05:14:46;;;;;;;14.23;4.07;;;12.60;73.00;;;;;;5084353;28;20025;-62
2023/05/17 05:17:12;;;;;;;11.70;3.85;;;12.90;72.50;;;;;;5064737;28;20036;-62
2023/05/17 05:19:39;;;;;;;11.70;4.72;;;13.60;70.60;;;;;;5050738;28;20129;-62
2023/05/17 05:22:06;;;;;;;12.57;3.83;;;14.00;69.20;;;;;;5057532;28;20033;-62
2023/05/17 05:24:32;;;;;;;14.82;4.22;;;14.00;68.90;;;;;;5064923;28;20362;-63
2023/05/17 05:26:58;;;;;;;10.80;3.83;;;14.00;69.00;;;;;;5069578;28;20032;-62
2023/05/17 05:29:25;;;;;;;12.80;4.00;;;13.90;69.10;;;;;;5075062;28;20013;-62
2023/05/17 05:31:50;;;;;;;11.20;3.22;;;13.80;69.20;;;;;;5074921;28;20023;-62
2023/05/17 05:34:17;;;;;;;13.98;3.67;;;13.80;69.50;;;;;;5068526;28;20104;-64
2023/05/17 05:36:43;;;;;;;13.93;4.30;;;13.70;69.60;;;;;;5066922;28;20422;-62
2023/05/17 05:39:09;;;;;;;11.60;3.60;;;13.70;69.80;;;;;;5068977;28;20028;-62
2023/05/17 05:41:35;;;;;;;13.73;4.18;;;13.60;69.90;;;;;;5058898;28;20028;-62
2023/05/17 05:44:01;;;;;;;13.52;3.70;;;13.70;70.00;;;;;;5065511;28;20124;-62
2023/05/17 05:46:28;;;;;;;9.63;3.47;;;13.70;70.00;;;;;;5054197;28;20020;-63
2023/05/17 05:48:54;;;;;;;14.18;3.90;;;13.60;69.90;;;;;;5068112;28;20025;-62
2023/05/17 05:51:20;;;;;;;10.43;3.17;;;13.70;69.80;;;;;;5066456;28;20400;-62
2023/05/17 05:53:46;;;;;;;12.52;3.65;;;13.60;69.60;;;;;;5063879;28;20099;-62
2023/05/17 05:56:12;;;;;;;11.60;3.42;;;13.60;69.70;;;;;;5044873;28;20040;-62
2023/05/17 05:58:37;;;;;;;16.33;3.83;;;13.60;69.60;;;;;;5068838;28;20024;-63
2023/05/17 06:01:04;;;;;;;10.60;2.80;;;13.50;69.50;;;;;;5066619;28;20016;-62
2023/05/17 06:03:29;;;;;;;12.27;3.28;;;13.50;69.50;;;;;;5068521;28;20074;-62
2023/05/17 06:05:56;;;;;;;12.65;2.97;;;13.40;69.60;;;;;;5066629;28;20404;-63
2023/05/17 06:08:22;;;;;;;14.57;3.60;;;13.50;69.70;;;;;;5067248;28;20044;-63
2023/05/17 06:10:48;;;;;;;51.47;8.23;;;13.50;69.80;;;;;;5068603;28;20079;-63
2023/05/17 06:13:14;;;;;;;12.60;4.18;;;13.60;69.70;;;;;;5057871;28;20327;-63
2023/05/17 06:15:40;;;;;;;11.80;3.22;;;13.80;69.30;;;;;;5067736;28;20034;-64
2023/05/17 06:18:05;;;;;;;20.23;3.55;;;13.90;68.50;;;;;;5064714;28;20115;-63
2023/05/17 06:20:31;;;;;;;12.30;2.83;;;14.00;68.00;;;;;;5065606;28;20048;-63
2023/05/17 06:22:57;;;;;;;10.23;2.63;;;14.20;67.90;;;;;;5066180;28;20055;-63
2023/05/17 06:25:23;;;;;;;11.05;2.97;;;14.40;67.40;;;;;;5063651;28;20043;-63
2023/05/17 06:27:49;;;;;;;12.93;3.63;;;14.60;66.80;;;;;;5059637;28;20040;-63
2023/05/17 06:30:15;;;;;;;10.93;3.05;;;14.90;66.10;;;;;;5064631;28;20020;-63
2023/05/17 06:32:41;;;;;;;9.32;2.97;;;14.90;65.70;;;;;;5068452;28;20035;-64
2023/05/17 06:35:07;;;;;;;11.13;3.95;;;14.80;65.70;;;;;;5068075;28;20047;-63
2023/05/17 06:37:33;;;;;;;12.15;3.15;;;14.70;66.00;;;;;;5065447;28;20033;-63
2023/05/17 06:40:07;;;;;;;9.73;2.60;;;14.80;66.10;;;;;;5068734;28;20043;-64
2023/05/17 06:42:33;;;;;;;10.43;2.45;;;14.90;65.60;;;;;;5060210;28;20029;-63
2023/05/17 06:44:59;;;;;;;11.40;2.72;;;14.90;65.50;;;;;;5068677;28;20498;-63
2023/05/17 06:47:25;;;;;;;15.00;3.53;;;15.10;65.20;;;;;;5059248;28;20143;-65
2023/05/17 06:49:52;;;;;;;12.35;2.65;;;15.40;64.70;;;;;;5058674;28;20040;-65
2023/05/17 06:52:19;;;;;;;12.98;2.88;;;15.60;64.40;;;;;;5056864;28;20054;-64
2023/05/17 06:54:45;;;;;;;10.52;2.67;;;15.80;63.90;;;;;;5049806;28;20066;-65
2023/05/17 06:57:11;;;;;;;9.63;2.75;;;16.00;63.40;;;;;;5061258;28;20029;-64
2023/05/17 06:59:36;;;;;;;9.45;2.42;;;16.10;62.80;;;;;;5055440;28;20028;-65
2023/05/17 07:02:02;;;;;;;11.10;2.97;;;16.20;62.50;;;;;;5057963;28;20480;-66
2023/05/17 07:04:28;;;;;;;11.77;2.85;;;16.30;62.40;;;;;;5059586;28;20032;-65
2023/05/17 07:06:54;;;;;;;11.50;2.53;;;16.40;61.90;;;;;;5050028;28;20021;-65
2023/05/17 07:09:20;;;;;;;10.20;2.38;;;16.40;61.80;;;;;;5060818;28;20138;-66
2023/05/17 07:11:47;;;;;;;12.60;2.83;;;16.60;61.20;;;;;;5065701;28;20028;-65
2023/05/17 07:14:13;;;;;;;8.00;1.98;;;16.70;60.60;;;;;;5064870;28;20052;-65
2023/05/17 07:16:39;;;;;;;8.63;2.55;;;16.70;60.40;;;;;;5063567;28;20033;-64
2023/05/17 07:19:04;;;;;;;9.70;2.33;;;16.50;60.30;;;;;;5057536;28;20036;-65
2023/05/17 07:21:31;;;;;;;9.32;2.15;;;16.40;60.10;;;;;;5056978;28;20045;-65
2023/05/17 07:23:57;;;;;;;9.88;2.15;;;16.30;60.10;;;;;;5058575;28;20115;-66
2023/05/17 07:26:23;;;;;;;9.00;1.73;;;16.20;60.10;;;;;;5062061;28;20103;-65
2023/05/17 07:28:49;;;;;;;9.15;2.13;;;16.10;59.90;;;;;;5062223;28;20043;-65
2023/05/17 07:31:15;;;;;;;8.43;1.83;;;15.90;59.90;;;;;;5054245;28;20025;-64
2023/05/17 07:33:41;;;;;;;6.32;1.80;;;15.80;59.80;;;;;;5061736;28;20048;-65
2023/05/17 07:36:07;;;;;;;8.70;1.80;;;15.80;59.80;;;;;;5065198;28;20422;-65
2023/05/17 07:38:36;;;;;;;5.90;1.70;;;15.80;59.50;;;;;;5071125;28;20052;-65
2023/05/17 07:41:03;;;;;;;9.40;2.25;;;15.70;59.30;;;;;;5065892;28;20032;-65
2023/05/17 07:43:29;;;;;;;7.05;1.90;;;16.00;58.90;;;;;;5060687;28;20029;-65
2023/05/17 07:45:55;;;;;;;7.13;1.55;;;16.30;58.20;;;;;;5059712;28;20103;-66
2023/05/17 07:48:20;;;;;;;8.48;1.85;;;16.40;57.80;;;;;;5065151;28;20104;-64
2023/05/17 07:50:47;;;;;;;8.95;2.15;;;16.70;57.30;;;;;;5052202;28;20402;-65
2023/05/17 07:53:13;;;;;;;6.88;1.42;;;16.90;56.70;;;;;;5065636;28;20025;-65
2023/05/17 07:55:39;;;;;;;7.78;1.60;;;16.90;56.30;;;;;;5056084;28;20089;-66
2023/05/17 07:58:04;;;;;;;8.30;2.10;;;16.70;56.10;;;;;;5059097;28;20068;-65
2023/05/17 08:00:31;;;;;;;9.02;1.75;;;16.70;56.10;;;;;;5051595;28;20670;-64
2023/05/17 08:02:57;;;;;;;6.80;1.40;;;16.60;56.10;;;;;;5063430;28;20049;-63
2023/05/17 08:05:23;;;;;;;7.93;1.48;;;16.80;55.90;;;;;;5068404;28;20052;-64
2023/05/17 08:07:49;;;;;;;5.60;1.48;;;17.20;55.20;;;;;;5066638;28;20036;-63
2023/05/17 08:10:15;;;;;;;7.70;1.88;;;17.30;54.70;;;;;;5068581;28;20019;-64
2023/05/17 08:12:41;;;;;;;9.18;1.92;;;17.20;54.60;;;;;;5065296;28;20028;-64
2023/05/17 08:15:07;;;;;;;7.72;1.25;;;17.00;54.50;;;;;;5070393;28;20093;-63
2023/05/17 08:17:34;;;;;;;9.57;2.05;;;17.10;54.60;;;;;;5076890;28;20033;-63
2023/05/17 08:19:59;;;;;;;7.47;1.67;;;17.10;54.60;;;;;;5074573;28;20039;-63
2023/05/17 08:22:26;;;;;;;10.38;2.10;;;17.00;54.50;;;;;;5066398;28;20086;-63
2023/05/17 08:24:52;;;;;;;7.70;1.30;;;17.20;54.40;;;;;;5076164;28;20036;-63
2023/05/17 08:27:17;;;;;;;8.68;1.88;;;17.50;53.70;;;;;;5075729;28;20106;-63
2023/05/17 08:29:43;;;;;;;6.03;1.50;;;17.60;53.20;;;;;;5075360;28;20346;-62
2023/05/17 08:32:09;;;;;;;6.93;1.55;;;17.60;53.00;;;;;;5070604;28;20039;-63
2023/05/17 08:34:35;;;;;;;7.95;1.67;;;17.60;52.60;;;;;;5054965;28;20025;-63
2023/05/17 08:37:01;;;;;;;7.75;2.03;;;17.50;52.40;;;;;;5063882;28;20353;-63
2023/05/17 08:39:27;;;;;;;4.55;1.40;;;17.50;52.40;;;;;;5067397;28;20050;-63
2023/05/17 08:41:52;;;;;;;5.72;1.55;;;17.80;52.00;;;;;;5072393;28;20364;-63
2023/05/17 08:44:19;;;;;;;5.97;1.42;;;18.20;51.40;;;;;;5076517;28;20036;-63
2023/05/17 08:46:52;;;;;;;6.72;1.58;;;18.50;50.70;;;;;;5075039;28;20032;-63
2023/05/17 08:49:21;;;;;;;7.75;1.80;;;18.60;50.20;;;;;;5061489;28;20103;-63
2023/05/17 08:51:50;;;;;;;9.00;1.75;;;18.40;50.20;;;;;;5075405;28;20029;-63
2023/05/17 08:54:16;;;;;;;5.18;1.38;;;18.30;50.50;;;;;;5076298;28;20020;-63
2023/05/17 08:56:42;;;;;;;7.35;1.58;;;18.40;50.10;;;;;;5076348;28;20405;-63
2023/05/17 08:59:09;;;;;;;9.00;2.08;;;18.70;49.30;;;;;;5043028;28;20047;-63
2023/05/17 09:01:37;;;;;;;8.18;1.55;;;19.10;48.60;;;;;;5076406;28;20330;-63
2023/05/17 09:04:04;;;;;;;5.30;1.23;;;19.40;47.70;;;;;;5076603;28;20028;-63
2023/05/17 09:06:32;;;;;;;9.05;1.67;;;19.60;47.20;;;;;;5076563;28;20016;-63
2023/05/17 09:09:00;;;;;;;5.65;1.30;;;19.80;46.70;;;;;;5063276;28;20047;-63
2023/05/17 09:11:32;;;;;;;8.52;1.77;;;19.90;46.50;;;;;;5073703;28;20020;-63
2023/05/17 09:14:03;;;;;;;5.75;1.20;;;19.80;46.30;;;;;;5066487;28;20083;-63
2023/05/17 09:16:33;;;;;;;;;;;19.70;46.30;;;;;;5075604;28;20056;-63
2023/05/17 09:19:00;;;;;;;8.77;1.48;;;19.80;46.80;;;;;;5074088;28;19927;-64
2023/05/17 09:21:27;;;;;;;6.97;1.75;;;19.90;46.40;;;;;;5064868;28;20129;-63
2023/05/17 09:23:54;;;;;;;5.68;1.38;;;19.90;46.20;;;;;;5056678;28;20127;-63
2023/05/17 09:26:21;;;;;;;7.10;1.30;;;19.60;46.20;;;;;;5062750;28;20024;-63
2023/05/17 09:28:47;;;;;;;6.85;1.70;;;19.20;46.40;;;;;;5069713;28;20071;-63
2023/05/17 09:31:15;;;;;;;7.97;1.40;;;18.90;46.60;;;;;;5066677;28;20028;-64
2023/05/17 09:33:45;;;;;;;5.32;1.30;;;19.00;46.50;;;;;;5057905;28;20121;-63
2023/05/17 09:36:21;;;;;;;6.85;1.48;;;19.40;46.10;;;;;;5062560;28;20029;-63
2023/05/17 09:39:03;;;;;;;5.78;1.58;;;19.80;45.30;;;;;;5066819;28;20119;-63
2023/05/17 09:41:48;;;;;;;;;;;20.10;44.70;;;;;;5062272;28;20032;-64
2023/05/17 09:44:15;;;;;;;6.32;1.30;;;20.30;45.00;;;;;;5071033;28;20326;-64
2023/05/17 09:46:46;;;;;;;9.23;2.03;;;20.20;44.60;;;;;;5067893;28;20027;-64
2023/05/17 09:49:12;;;;;;;5.95;1.77;;;20.10;44.40;;;;;;5074622;28;20021;-64
2023/05/17 09:51:41;;;;;;;6.60;1.73;;;20.00;44.20;;;;;;5072446;28;20063;-64
2023/05/17 09:54:09;;;;;;;4.38;1.10;;;20.00;44.10;;;;;;5074039;28;20028;-64
2023/05/17 09:56:35;;;;;;;6.50;1.40;;;20.00;43.90;;;;;;5073636;28;20021;-64
2023/05/17 09:59:02;;;;;;;6.90;1.77;;;19.80;43.80;;;;;;5069807;28;20029;-64
2023/05/17 10:01:30;;;;;;;5.80;1.20;;;19.40;43.70;;;;;;5072942;28;20032;-64
2023/05/17 10:04:00;;;;;;;4.50;1.35;;;19.30;43.90;;;;;;5067459;28;20119;-64
2023/05/17 10:06:28;;;;;;;5.50;1.50;;;19.40;43.80;;;;;;5059581;28;20056;-65
2023/05/17 10:08:57;;;;;;;6.32;1.20;;;19.80;43.80;;;;;;5044621;28;20025;-64
2023/05/17 10:11:33;;;;;;;8.30;1.90;;;20.10;43.20;;;;;;5066773;28;20427;-65
2023/05/17 10:14:32;;;;;;;5.72;1.48;;;20.30;42.60;;;;;;5068263;28;20451;-64
2023/05/17 10:17:00;;;;;;;3.47;1.13;;;20.40;42.60;;;;;;5072920;28;20036;-63
2023/05/17 10:19:25;;;;;;;4.82;1.20;;;20.60;42.50;;;;;;5072250;28;20093;-64
2023/05/17 10:21:52;;;;;;;5.85;1.17;;;20.60;42.40;;;;;;5063203;28;20040;-64
2023/05/17 10:24:20;;;;;;;3.78;1.15;;;20.70;42.30;;;;;;5066781;28;20025;-64
2023/05/17 10:26:50;;;;;;;7.47;1.55;;;20.90;41.80;;;;;;5069075;28;20029;-64
2023/05/17 10:29:19;;;;;;;4.68;1.10;;;21.10;41.40;;;;;;5067274;28;20417;-64
2023/05/17 10:31:46;;;;;;;5.80;1.58;;;21.20;41.00;;;;;;5067731;28;20023;-64
2023/05/17 10:34:15;;;;;;;4.32;1.20;;;21.40;40.60;;;;;;5067865;28;20027;-64
2023/05/17 10:36:42;;;;;;;3.00;0.93;;;21.40;40.40;;;;;;5067842;28;20078;-64
2023/05/17 10:39:09;;;;;;;5.75;1.08;;;21.20;40.40;;;;;;5071108;28;20086;-64
2023/05/17 10:41:39;;;;;;;3.13;0.88;;;20.90;40.60;;;;;;5066942;28;20028;-64
2023/05/17 10:44:07;;;;;;;7.07;1.38;;;20.70;40.70;;;;;;5066678;28;20059;-64
2023/05/17 10:46:33;;;;;;;3.63;1.10;;;20.90;40.90;;;;;;5072837;28;20028;-63
2023/05/17 10:49:00;;;;;;;4.88;1.58;;;21.10;40.90;;;;;;5070051;28;20059;-64
2023/05/17 10:51:37;;;;;;;3.25;1.15;;;21.40;40.70;;;;;;5064009;28;20156;-63
2023/05/17 10:54:02;;;;;;;5.50;1.30;;;21.60;40.10;;;;;;5070807;28;20029;-64
2023/05/17 10:56:32;;;;;;;5.68;1.30;;;21.70;39.70;;;;;;5067743;28;20035;-63
2023/05/17 10:59:16;;;;;;;3.63;1.20;;;21.70;39.20;;;;;;5072759;28;20093;-64
2023/05/17 11:02:02;;;;;;;4.43;1.00;;;21.70;38.80;;;;;;5073608;28;20066;-64
2023/05/17 11:04:32;;;;;;;7.00;1.50;;;21.70;38.90;;;;;;5063053;28;20029;-63
2023/05/17 11:07:16;;;;;;;5.53;1.35;;;21.80;38.60;;;;;;5054581;28;20033;-64
2023/05/17 11:09:43;;;;;;;2.95;0.90;;;21.80;38.20;;;;;;5056072;28;20155;-63
2023/05/17 11:12:14;;;;;;;4.68;1.20;;;21.60;38.50;;;;;;5069307;28;20105;-62
2023/05/17 11:14:50;;;;;;;4.32;1.20;;;21.20;38.80;;;;;;5070974;28;20032;-62
2023/05/17 11:17:27;;;;;;;4.38;1.23;;;21.10;38.40;;;;;;5072654;28;20036;-62
2023/05/17 11:19:53;;;;;;;4.30;1.13;;;21.00;39.10;;;;;;5072858;28;20040;-62
2023/05/17 11:22:24;;;;;;;4.82;1.25;;;20.90;39.00;;;;;;5055883;28;20037;-62
2023/05/17 11:24:54;;;;;;;3.93;1.20;;;21.00;39.00;;;;;;5065871;28;20358;-62
2023/05/17 11:27:26;;;;;;;4.57;0.90;;;21.20;38.80;;;;;;5073332;28;20294;-62
2023/05/17 11:29:59;;;;;;;5.78;1.30;;;21.40;38.50;;;;;;5073352;28;20039;-62
2023/05/17 11:32:27;;;;;;;8.63;1.50;;;21.40;38.40;;;;;;5054108;28;20025;-62
2023/05/17 11:34:53;;;;;;;4.90;1.17;;;21.50;38.40;;;;;;5065224;28;20029;-62
2023/05/17 11:37:26;;;;;;;5.95;1.25;;;21.60;37.80;;;;;;5068231;28;20029;-63
2023/05/17 11:40:04;;;;;;;6.78;1.38;;;21.60;37.90;;;;;;5064695;28;20043;-62
2023/05/17 11:42:30;;;;;;;4.72;1.33;;;21.60;38.00;;;;;;5071538;28;20437;-62
2023/05/17 11:44:57;;;;;;;5.88;1.45;;;21.60;37.80;;;;;;5064326;28;20036;-63
2023/05/17 11:47:24;;;;;;;4.78;1.50;;;21.70;37.70;;;;;;5072652;28;20025;-62
2023/05/17 11:49:51;;;;;;;4.97;1.52;;;21.70;37.60;;;;;;5072588;28;20303;-62
2023/05/17 11:52:17;;;;;;;7.45;1.95;;;21.60;37.40;;;;;;5071724;28;20029;-63
2023/05/17 11:54:45;;;;;;;6.85;1.70;;;21.60;37.30;;;;;;5059776;28;20123;-63
2023/05/17 11:57:15;;;;;;;5.28;1.63;;;21.50;37.30;;;;;;5072574;28;20334;-62
2023/05/17 11:59:42;;;;;;;7.93;1.60;;;21.50;37.60;;;;;;5072817;28;20039;-63
2023/05/17 12:02:08;;;;;;;6.82;1.67;;;21.40;37.50;;;;;;5072634;28;20465;-63
2023/05/17 12:04:37;;;;;;;6.40;1.77;;;21.30;37.70;;;;;;5063226;28;20453;-62
2023/05/17 12:07:04;;;;;;;7.55;1.58;;;21.30;37.90;;;;;;5072510;28;20111;-62
2023/05/17 12:09:30;;;;;;;8.43;1.80;;;21.20;38.00;;;;;;5071464;28;20046;-62
2023/05/17 12:11:56;;;;;;;6.60;1.60;;;21.00;37.90;;;;;;5072811;28;20029;-62
2023/05/17 12:14:23;;;;;;;7.13;1.70;;;20.70;38.20;;;;;;5072688;28;20036;-62
2023/05/17 12:16:57;;;;;;;8.13;1.90;;;20.50;38.00;;;;;;5067964;28;20033;-62
2023/05/17 12:19:28;;;;;;;7.10;1.58;;;20.60;38.30;;;;;;5071424;28;20033;-63
2023/05/17 12:22:06;;;;;;;8.90;1.98;;;20.70;38.30;;;;;;5017954;28;1170674;-62
2023/05/17 12:24:41;;;;;;;6.00;1.40;;;20.70;38.30;;;;;;5073655;28;20122;-62
2023/05/17 12:27:07;;;;;;;7.80;1.88;;;20.50;38.50;;;;;;5073671;28;20028;-62
2023/05/17 12:29:33;;;;;;;7.50;1.58;;;20.40;38.90;;;;;;5072744;28;20025;-62
2023/05/17 12:32:00;;;;;;;11.18;2.00;;;20.20;39.00;;;;;;5073334;28;20032;-62
2023/05/17 12:34:27;;;;;;;10.15;1.85;;;20.20;39.10;;;;;;5073606;28;20481;-63
2023/05/17 12:36:54;;;;;;;7.43;1.90;;;20.20;39.20;;;;;;5071917;28;20047;-62
2023/05/17 12:39:23;;;;;;;8.23;1.83;;;20.20;39.30;;;;;;5073237;28;20048;-62
2023/05/17 12:41:53;;;;;;;8.68;1.98;;;20.10;39.70;;;;;;5071295;28;20412;-62
2023/05/17 12:44:19;;;;;;;6.40;1.95;;;20.10;39.00;;;;;;5056520;28;20046;-62
2023/05/17 12:46:52;;;;;;;6.45;2.03;;;20.00;39.20;;;;;;5075726;28;20082;-63